createdAt,value
2022-08-24T00:00:16.913Z,12.20
2022-08-24T00:02:45.120Z,10.98
2022-08-24T00:05:14.960Z,10.43
2022-08-24T00:07:43.410Z,11.65
2022-08-24T00:10:13.473Z,14.35
2022-08-24T00:12:42.039Z,13.88
2022-08-24T00:15:11.853Z,15.00
2022-08-24T00:17:41.371Z,12.88
2022-08-24T00:20:12.167Z,15.38
2022-08-24T00:22:41.195Z,12.80
2022-08-24T00:25:11.163Z,14.88
2022-08-24T00:27:39.911Z,13.32
2022-08-24T00:30:11.722Z,13.02
2022-08-24T00:32:41.146Z,16.92
2022-08-24T00:35:10.526Z,14.27
2022-08-24T00:37:38.830Z,15.65
2022-08-24T00:40:11.662Z,14.07
2022-08-24T00:42:40.699Z,21.30
2022-08-24T00:45:12.312Z,13.70
2022-08-24T00:47:47.927Z,16.83
2022-08-24T00:50:22.033Z,13.90
2022-08-24T00:52:55.459Z,15.68
2022-08-24T00:55:33.419Z,14.00
2022-08-24T00:58:05.195Z,19.17
2022-08-24T01:00:41.335Z,15.10
2022-08-24T01:03:15.436Z,17.70
2022-08-24T01:05:44.268Z,15.90
2022-08-24T01:08:14.446Z,17.67
2022-08-24T01:10:46.850Z,17.40
2022-08-24T01:13:15.987Z,17.55
2022-08-24T01:15:48.813Z,14.98
2022-08-24T01:18:39.591Z,16.65
2022-08-24T01:21:13.296Z,17.58
2022-08-24T01:23:44.742Z,15.38
2022-08-24T01:26:17.579Z,19.20
2022-08-24T01:28:49.805Z,15.27
2022-08-24T01:31:22.250Z,16.95
2022-08-24T01:33:51.822Z,17.90
2022-08-24T01:36:32.067Z,18.27
2022-08-24T01:39:07.009Z,15.70
2022-08-24T01:41:35.175Z,16.33
2022-08-24T01:44:03.348Z,17.65
2022-08-24T01:46:31.580Z,16.20
2022-08-24T01:49:00.276Z,16.40
2022-08-24T01:51:31.957Z,17.70
2022-08-24T01:54:02.905Z,18.50
2022-08-24T01:56:31.217Z,16.23
2022-08-24T01:59:01.626Z,15.80
2022-08-24T02:01:31.390Z,15.88
2022-08-24T02:04:02.117Z,17.48
2022-08-24T02:06:30.227Z,14.90
2022-08-24T02:08:58.376Z,15.48
2022-08-24T02:11:28.756Z,16.30
2022-08-24T02:13:56.834Z,17.02
2022-08-24T02:16:25.573Z,14.00
2022-08-24T02:18:53.885Z,14.75
2022-08-24T02:21:22.247Z,15.77
2022-08-24T02:23:50.426Z,18.88
2022-08-24T02:26:18.688Z,14.57
2022-08-24T02:28:48.116Z,17.17
2022-08-24T02:31:16.700Z,15.10
2022-08-24T02:33:44.896Z,16.63
2022-08-24T02:36:26.159Z,15.32
2022-08-24T02:38:54.938Z,15.80
2022-08-24T02:41:25.738Z,15.10
2022-08-24T02:43:56.259Z,17.67
2022-08-24T02:46:27.160Z,14.77
2022-08-24T02:49:03.593Z,15.73
2022-08-24T02:51:44.150Z,15.68
2022-08-24T02:54:17.403Z,15.65
2022-08-24T02:56:45.486Z,15.75
2022-08-24T02:59:15.454Z,15.35
2022-08-24T03:07:14.328Z,16.90
2022-08-24T03:09:42.360Z,15.50
2022-08-24T03:12:10.528Z,14.32
2022-08-24T03:14:40.885Z,16.38
2022-08-24T03:17:08.969Z,13.75
2022-08-24T03:19:37.036Z,14.55
2022-08-24T03:22:05.190Z,14.40
2022-08-24T03:24:33.680Z,15.32
2022-08-24T03:27:01.775Z,16.05
2022-08-24T03:29:33.740Z,23.88
2022-08-24T03:32:04.773Z,13.32
2022-08-24T03:34:32.939Z,13.95
2022-08-24T03:37:00.999Z,13.60
2022-08-24T03:39:29.352Z,15.50
2022-08-24T03:41:57.776Z,13.77
2022-08-24T03:44:26.237Z,17.40
2022-08-24T03:46:54.921Z,13.88
2022-08-24T03:49:24.852Z,12.52
2022-08-24T03:51:53.097Z,14.23
2022-08-24T03:54:21.193Z,14.00
2022-08-24T03:56:49.257Z,13.65
2022-08-24T03:59:19.961Z,14.30
2022-08-24T04:01:48.286Z,12.50
2022-08-24T04:04:16.395Z,15.95
2022-08-24T04:06:46.931Z,13.05
2022-08-24T04:09:15.138Z,13.00
2022-08-24T04:11:46.043Z,14.73
2022-08-24T04:14:26.935Z,13.75
2022-08-24T04:16:57.817Z,12.75
2022-08-24T04:19:26.572Z,13.38
2022-08-24T04:21:58.670Z,12.10
2022-08-24T04:24:27.669Z,13.50
2022-08-24T04:26:55.769Z,12.07
2022-08-24T04:29:23.873Z,15.43
2022-08-24T04:31:52.232Z,13.05
2022-08-24T04:34:20.399Z,14.25
2022-08-24T04:36:48.790Z,12.93
2022-08-24T04:39:18.179Z,11.90
2022-08-24T04:41:46.295Z,13.73
2022-08-24T04:44:15.284Z,13.65
2022-08-24T04:46:43.452Z,12.82
2022-08-24T04:49:11.973Z,12.88
2022-08-24T04:51:40.063Z,12.90
2022-08-24T04:54:08.443Z,17.73
2022-08-24T04:56:38.204Z,13.57
2022-08-24T04:59:07.102Z,15.85
2022-08-24T05:01:35.599Z,13.93
2022-08-24T05:04:05.276Z,13.35
2022-08-24T05:06:34.819Z,14.82
2022-08-24T05:09:07.402Z,15.02
2022-08-24T05:11:40.374Z,15.35
2022-08-24T05:14:11.178Z,17.00
2022-08-24T05:16:39.535Z,14.07
2022-08-24T05:19:13.704Z,17.05
2022-08-24T05:21:44.304Z,16.33
2022-08-24T05:24:12.466Z,13.80
2022-08-24T05:26:42.319Z,13.48
2022-08-24T05:29:10.854Z,14.93
2022-08-24T05:31:39.601Z,16.48
2022-08-24T05:34:07.749Z,17.10
2022-08-24T05:36:38.472Z,17.70
2022-08-24T05:39:11.495Z,14.38
2022-08-24T05:41:44.177Z,16.23
2022-08-24T05:44:14.436Z,14.88
2022-08-24T05:46:43.268Z,17.77
2022-08-24T05:49:12.216Z,15.65
2022-08-24T05:51:42.371Z,17.55
2022-08-24T05:54:11.341Z,18.73
2022-08-24T05:56:39.479Z,19.83
2022-08-24T05:59:09.598Z,16.80
2022-08-24T06:01:40.308Z,15.13
2022-08-24T06:04:11.632Z,15.88
2022-08-24T06:06:39.776Z,18.83
2022-08-24T06:09:08.350Z,20.25
2022-08-24T06:11:39.190Z,17.30
2022-08-24T06:14:12.878Z,16.95
2022-08-24T06:16:43.391Z,15.93
2022-08-24T06:19:14.009Z,16.40
2022-08-24T06:21:43.037Z,13.82
2022-08-24T06:24:11.158Z,14.48
2022-08-24T06:26:56.557Z,16.02
2022-08-24T06:29:26.567Z,16.77
2022-08-24T06:31:56.110Z,13.40
2022-08-24T06:34:26.257Z,14.85
2022-08-24T06:36:54.494Z,14.50
2022-08-24T06:39:22.686Z,13.45
2022-08-24T06:41:50.781Z,12.60
2022-08-24T06:44:18.930Z,13.35
2022-08-24T06:46:48.431Z,13.75
2022-08-24T06:49:16.506Z,13.63
2022-08-24T06:51:47.487Z,13.15
2022-08-24T06:54:20.853Z,12.63
2022-08-24T06:56:48.945Z,12.90
2022-08-24T06:59:17.012Z,12.02
2022-08-24T07:01:45.166Z,11.75
2022-08-24T07:04:14.833Z,11.70
2022-08-24T07:06:42.992Z,11.60
2022-08-24T07:09:12.204Z,13.40
2022-08-24T07:11:40.536Z,11.45
2022-08-24T07:25:48.953Z,10.00
2022-08-24T07:28:18.900Z,12.63
2022-08-24T07:31:00.142Z,10.57
2022-08-24T07:33:28.292Z,9.70
2022-08-24T07:35:56.481Z,9.27
2022-08-24T07:38:24.563Z,10.68
2022-08-24T07:41:14.757Z,13.95
2022-08-24T07:43:43.175Z,9.88
2022-08-24T07:46:11.505Z,10.20
2022-08-24T07:48:39.610Z,8.65
2022-08-24T07:51:12.445Z,10.20
2022-08-24T07:53:53.044Z,9.73
2022-08-24T07:56:23.561Z,8.38
2022-08-24T07:58:54.408Z,7.93
2022-08-24T08:01:23.324Z,12.05
2022-08-24T08:03:51.901Z,9.52
2022-08-24T08:06:20.165Z,10.57
2022-08-24T08:08:48.458Z,9.60
2022-08-24T08:11:16.585Z,10.38
2022-08-24T08:13:46.613Z,9.63
2022-08-24T08:16:15.504Z,8.98
2022-08-24T08:18:45.498Z,7.07
2022-08-24T08:21:27.907Z,14.00
2022-08-24T08:24:14.912Z,9.95
2022-08-24T08:26:44.015Z,11.57
2022-08-24T08:29:14.607Z,8.63
2022-08-24T08:31:43.485Z,11.43
2022-08-24T08:34:14.144Z,8.05
2022-08-24T08:36:42.794Z,7.97
2022-08-24T08:39:12.776Z,7.22
2022-08-24T08:42:17.342Z,7.07
2022-08-24T08:45:12.611Z,11.10
2022-08-24T08:48:10.702Z,6.95
2022-08-24T08:50:58.302Z,8.70
2022-08-24T08:54:07.644Z,6.68
2022-08-24T08:56:41.742Z,7.82
2022-08-24T08:59:18.790Z,5.68
2022-08-24T09:02:01.645Z,9.40
2022-08-24T09:04:59.802Z,6.35
2022-08-24T09:07:38.785Z,5.10
2022-08-24T09:10:42.291Z,9.02
2022-08-24T09:13:35.564Z,4.72
2022-08-24T09:16:19.492Z,6.07
2022-08-24T09:19:01.032Z,4.20
2022-08-24T09:21:48.417Z,5.35
2022-08-24T09:28:34.652Z,5.20
2022-08-24T09:31:27.877Z,6.93
2022-08-24T09:34:09.434Z,4.35
2022-08-24T09:36:53.311Z,5.25
2022-08-24T09:39:45.756Z,4.40
2022-08-24T09:58:00.615Z,3.92
2022-08-24T10:00:34.218Z,4.50
2022-08-24T10:03:16.959Z,4.43
2022-08-24T10:06:03.486Z,4.60
2022-08-24T10:08:45.403Z,4.90
2022-08-24T10:11:23.120Z,4.40
2022-08-24T10:14:02.524Z,7.57
2022-08-24T10:16:41.672Z,3.55
2022-08-24T10:19:24.125Z,4.93
2022-08-24T10:22:03.839Z,4.10
2022-08-24T10:24:48.200Z,6.70
2022-08-24T10:27:37.520Z,6.43
2022-08-24T10:30:28.470Z,5.43
2022-08-24T10:33:11.423Z,5.30
2022-08-24T10:35:50.833Z,4.50
2022-08-24T10:38:47.247Z,4.75
2022-08-24T10:41:43.403Z,5.25
2022-08-24T10:44:28.561Z,6.97
2022-08-24T10:47:01.468Z,4.13
2022-08-24T10:50:11.564Z,3.58
2022-08-24T10:53:20.085Z,9.82
2022-08-24T10:55:58.561Z,6.00
2022-08-24T10:58:46.216Z,3.70
2022-08-24T11:01:18.423Z,4.07
2022-08-24T11:03:53.430Z,2.60
2022-08-24T11:06:23.055Z,3.15
2022-08-24T11:09:01.549Z,3.05
2022-08-24T11:11:33.657Z,3.60
2022-08-24T11:14:06.272Z,3.55
2022-08-24T11:16:39.875Z,4.43
2022-08-24T11:19:13.330Z,2.67
2022-08-24T11:21:49.133Z,2.67
2022-08-24T11:24:39.675Z,2.50
2022-08-24T11:27:19.682Z,3.15
2022-08-24T11:30:00.150Z,2.88
2022-08-24T11:32:31.285Z,2.00
2022-08-24T11:35:07.131Z,2.00
2022-08-24T11:37:37.747Z,2.67
2022-08-24T11:40:09.029Z,3.33
2022-08-24T11:43:05.989Z,2.88
2022-08-24T11:45:42.155Z,3.00
2022-08-24T11:48:28.513Z,3.22
2022-08-24T11:51:02.965Z,3.92
2022-08-24T11:56:21.537Z,1.42
2022-08-24T11:58:58.202Z,2.05
2022-08-24T12:05:27.319Z,2.78
2022-08-24T12:08:07.127Z,3.90
2022-08-24T12:10:45.718Z,1.25
2022-08-24T12:13:28.685Z,1.77
2022-08-24T12:16:06.236Z,2.47
2022-08-24T12:18:45.583Z,1.20
2022-08-24T12:21:15.720Z,1.20
2022-08-24T12:23:48.578Z,2.65
2022-08-24T12:26:26.256Z,1.25
2022-08-24T12:29:01.229Z,1.50
2022-08-24T12:31:39.448Z,0.95
2022-08-24T12:34:13.686Z,3.33
2022-08-24T12:36:50.479Z,1.33
2022-08-24T12:39:27.021Z,1.95
2022-08-24T12:42:06.643Z,3.03
2022-08-24T12:44:44.213Z,1.50
2022-08-24T12:47:13.499Z,1.48
2022-08-24T12:49:49.433Z,1.55
2022-08-24T12:52:49.066Z,2.67
2022-08-24T12:55:32.322Z,2.65
2022-08-24T13:00:57.484Z,2.42
2022-08-24T13:03:32.030Z,2.13
2022-08-24T13:06:04.540Z,3.67
2022-08-24T13:08:40.466Z,2.28
2022-08-24T13:11:14.736Z,2.63
2022-08-24T13:13:47.924Z,1.60
2022-08-24T13:16:45.686Z,5.20
2022-08-24T13:19:16.973Z,1.92
2022-08-24T13:21:48.873Z,3.47
2022-08-24T13:24:48.138Z,2.08
2022-08-24T13:28:02.582Z,1.60
2022-08-24T13:31:00.675Z,3.15
2022-08-24T13:33:35.085Z,2.78
2022-08-24T13:36:08.422Z,2.67
2022-08-24T13:38:59.582Z,1.50
2022-08-24T13:41:45.458Z,2.78
2022-08-24T13:44:23.360Z,2.05
2022-08-24T13:47:01.136Z,1.95
2022-08-24T13:49:46.176Z,1.38
2022-08-24T13:52:27.669Z,1.67
2022-08-24T13:55:10.492Z,2.03
2022-08-24T13:57:45.494Z,2.70
2022-08-24T14:00:42.788Z,1.90
2022-08-24T14:03:46.030Z,1.60
2022-08-24T14:06:28.671Z,4.65
2022-08-24T14:09:13.977Z,2.67
2022-08-24T14:11:57.131Z,2.47
2022-08-24T14:14:46.747Z,1.40
2022-08-24T14:17:43.559Z,2.75
2022-08-24T14:20:30.356Z,3.28
2022-08-24T14:23:07.060Z,2.17
2022-08-24T14:25:37.854Z,2.55
2022-08-24T14:28:35.725Z,2.85
2022-08-24T14:31:29.611Z,3.10
2022-08-24T14:34:14.124Z,1.75
2022-08-24T14:36:47.505Z,2.53
2022-08-24T14:39:32.049Z,2.58
2022-08-24T14:42:12.789Z,3.72
2022-08-24T14:44:53.154Z,2.63
2022-08-24T14:47:32.428Z,4.38
2022-08-24T14:50:12.976Z,2.00
2022-08-24T14:52:56.146Z,2.33
2022-08-24T14:55:32.170Z,2.95
2022-08-24T14:58:12.939Z,2.85
2022-08-24T15:01:06.374Z,2.35
2022-08-24T15:03:52.201Z,2.10
2022-08-24T15:06:27.843Z,4.25
2022-08-24T15:09:08.660Z,2.40
2022-08-24T15:11:40.568Z,1.80
2022-08-24T15:26:23.733Z,2.13
2022-08-24T15:28:56.953Z,2.08
2022-08-24T15:31:28.880Z,2.67
2022-08-24T15:33:59.120Z,2.88
2022-08-24T15:36:30.059Z,1.92
2022-08-24T15:38:58.313Z,2.45
2022-08-24T15:41:31.197Z,2.45
2022-08-24T15:44:05.354Z,2.38
2022-08-24T15:46:37.187Z,2.70
2022-08-24T15:49:13.962Z,1.48
2022-08-24T15:51:51.847Z,2.22
2022-08-24T15:54:33.207Z,1.40
2022-08-24T15:57:03.569Z,2.25
2022-08-24T15:59:46.801Z,1.85
2022-08-24T16:02:26.362Z,2.00
2022-08-24T16:05:14.343Z,2.53
2022-08-24T16:08:10.617Z,3.00
2022-08-24T16:10:42.430Z,2.28
2022-08-24T16:13:23.630Z,3.47
2022-08-24T16:15:59.045Z,4.03
2022-08-24T16:18:42.589Z,1.92
2022-08-24T16:21:16.840Z,2.30
2022-08-24T16:23:55.538Z,2.85
2022-08-24T16:26:27.694Z,3.83
2022-08-24T16:28:58.136Z,3.20
2022-08-24T16:31:49.392Z,1.40
2022-08-24T16:34:24.958Z,3.45
2022-08-24T16:36:53.095Z,2.85
2022-08-24T16:39:21.348Z,1.88
2022-08-24T16:41:50.068Z,4.10
2022-08-24T16:44:18.614Z,3.63
2022-08-24T16:46:48.355Z,2.63
2022-08-24T16:53:06.934Z,2.58
2022-08-24T16:55:35.079Z,2.22
2022-08-24T16:58:03.489Z,2.35
2022-08-24T17:00:31.808Z,4.03
2022-08-24T17:03:01.267Z,3.53
2022-08-24T17:05:29.693Z,2.67
2022-08-24T17:07:59.705Z,5.18
2022-08-24T17:10:27.899Z,2.85
2022-08-24T17:12:56.104Z,2.78
2022-08-24T17:15:24.723Z,3.55
2022-08-24T17:17:57.494Z,2.58
2022-08-24T17:20:27.156Z,3.42
2022-08-24T17:22:55.350Z,2.10
2022-08-24T17:25:23.600Z,1.83
2022-08-24T17:27:54.447Z,2.35
2022-08-24T17:30:24.125Z,2.42
2022-08-24T17:32:52.801Z,2.45
2022-08-24T17:35:22.008Z,2.33
2022-08-24T17:37:53.818Z,3.35
2022-08-24T17:40:27.763Z,2.63
2022-08-24T17:42:56.110Z,3.40
2022-08-24T17:45:24.455Z,2.33
2022-08-24T17:47:53.779Z,2.58
2022-08-24T17:50:24.260Z,1.95
2022-08-24T17:52:56.239Z,1.85
2022-08-24T17:55:29.301Z,2.92
2022-08-24T17:57:58.099Z,2.55
2022-08-24T18:00:26.327Z,2.30
2022-08-24T18:02:54.472Z,4.13
2022-08-24T18:05:22.916Z,3.35
2022-08-24T18:07:55.140Z,2.22
2022-08-24T18:10:26.266Z,3.03
2022-08-24T18:12:54.541Z,4.38
2022-08-24T18:15:31.104Z,6.15
2022-08-24T18:18:08.537Z,4.03
2022-08-24T18:20:40.347Z,3.55
2022-08-24T18:23:11.972Z,2.58
2022-08-24T18:25:45.807Z,3.42
2022-08-24T18:28:15.228Z,5.22
2022-08-24T18:30:44.087Z,1.92
2022-08-24T18:33:12.273Z,4.60
2022-08-24T18:35:40.447Z,3.22
2022-08-24T18:38:09.959Z,4.75
2022-08-24T18:40:38.205Z,3.00
2022-08-24T18:43:06.570Z,5.40
2022-08-24T18:45:35.399Z,3.85
2022-08-24T18:48:03.918Z,6.68
2022-08-24T18:50:33.363Z,3.53
2022-08-24T18:53:02.158Z,2.47
2022-08-24T18:55:31.850Z,3.30
2022-08-24T18:58:00.359Z,5.85
2022-08-24T19:00:28.645Z,4.97
2022-08-24T19:02:59.365Z,3.90
2022-08-24T19:05:27.561Z,1.98
2022-08-24T19:07:55.716Z,3.33
2022-08-24T19:10:27.636Z,2.58
2022-08-24T19:12:59.889Z,4.10
2022-08-24T19:15:29.356Z,3.58
2022-08-24T19:18:09.783Z,3.67
2022-08-24T19:20:43.487Z,4.57
2022-08-24T19:23:20.213Z,3.05
2022-08-24T19:25:49.484Z,3.97
2022-08-24T19:28:19.111Z,2.55
2022-08-24T19:30:48.903Z,2.60
2022-08-24T19:33:24.274Z,4.25
2022-08-24T19:35:53.114Z,2.55
2022-08-24T19:38:25.404Z,4.00
2022-08-24T19:40:55.436Z,2.92
2022-08-24T19:43:26.829Z,2.42
2022-08-24T19:46:06.270Z,2.70
2022-08-24T19:48:36.571Z,2.67
2022-08-24T19:51:06.019Z,4.80
2022-08-24T19:53:36.942Z,4.30
2022-08-24T19:56:06.623Z,2.17
2022-08-24T19:58:44.285Z,2.67
2022-08-24T20:01:15.449Z,3.55
2022-08-24T20:03:43.618Z,3.10
2022-08-24T20:06:12.494Z,3.30
2022-08-24T20:08:41.328Z,2.88
2022-08-24T20:11:10.015Z,3.33
2022-08-24T20:13:39.898Z,2.67
2022-08-24T20:16:10.722Z,3.17
2022-08-24T20:18:40.106Z,4.95
2022-08-24T20:21:08.627Z,2.30
2022-08-24T20:23:37.000Z,2.55
2022-08-24T20:26:07.126Z,2.95
2022-08-24T20:28:40.663Z,4.45
2022-08-24T20:31:11.145Z,5.03
2022-08-24T20:33:39.641Z,3.03
2022-08-24T20:36:09.949Z,3.35
2022-08-24T20:38:38.048Z,4.28
2022-08-24T20:41:06.396Z,4.38
2022-08-24T20:43:34.654Z,4.75
2022-08-24T20:46:02.788Z,3.47
2022-08-24T20:48:34.013Z,4.75
2022-08-24T20:51:02.623Z,5.53
2022-08-24T20:53:31.090Z,3.20
2022-08-24T20:56:04.419Z,3.85
2022-08-24T20:58:32.754Z,3.72
2022-08-24T21:01:00.900Z,3.75
2022-08-24T21:03:29.134Z,3.28
2022-08-24T21:06:00.210Z,4.43
2022-08-24T21:08:28.494Z,2.97
2022-08-24T21:10:56.691Z,3.03
2022-08-24T21:13:24.717Z,3.45
2022-08-24T21:15:53.003Z,2.97
2022-08-24T21:18:21.481Z,3.17
2022-08-24T21:21:04.032Z,4.00
2022-08-24T21:23:35.116Z,3.10
2022-08-24T21:26:04.762Z,3.20
2022-08-24T21:28:33.487Z,4.32
2022-08-24T21:31:05.889Z,4.28
2022-08-24T21:33:52.064Z,2.97
2022-08-24T21:36:23.407Z,3.53
2022-08-24T21:38:54.415Z,4.70
2022-08-24T21:41:23.015Z,5.28
2022-08-24T21:43:51.663Z,3.80
2022-08-24T21:46:19.839Z,3.40
2022-08-24T21:48:48.278Z,3.55
2022-08-24T21:51:16.389Z,3.30
2022-08-24T21:53:44.532Z,3.38
2022-08-24T21:56:14.476Z,3.13
2022-08-24T21:58:45.495Z,3.15
2022-08-24T22:01:16.246Z,3.15
2022-08-24T22:03:44.391Z,3.50
2022-08-24T22:06:13.728Z,3.53
2022-08-24T22:08:43.947Z,4.20
2022-08-24T22:11:15.760Z,3.38
2022-08-24T22:13:43.934Z,3.97
2022-08-24T22:16:13.319Z,3.58
2022-08-24T22:18:42.092Z,5.50
2022-08-24T22:21:12.657Z,5.10
2022-08-24T22:23:41.809Z,3.50
2022-08-24T22:26:10.505Z,4.30
2022-08-24T22:28:41.759Z,4.05
2022-08-24T22:31:17.396Z,5.65
2022-08-24T22:33:45.945Z,5.05
2022-08-24T22:36:14.859Z,5.47
2022-08-24T22:38:43.018Z,4.00
2022-08-24T22:41:11.738Z,3.15
2022-08-24T22:43:58.831Z,7.97
2022-08-24T22:46:27.195Z,3.90
2022-08-24T22:48:55.571Z,4.47
2022-08-24T22:51:24.068Z,4.63
2022-08-24T22:53:52.516Z,4.15
2022-08-24T22:56:22.658Z,4.55
2022-08-24T22:58:52.758Z,4.82
2022-08-24T23:01:22.939Z,5.43
2022-08-24T23:03:52.296Z,4.88
2022-08-24T23:06:20.661Z,4.63
2022-08-24T23:08:48.772Z,4.43
2022-08-24T23:11:18.205Z,6.82
2022-08-24T23:13:46.580Z,5.00
2022-08-24T23:16:16.082Z,4.47
2022-08-24T23:19:01.721Z,4.53
2022-08-24T23:21:30.009Z,4.22
2022-08-24T23:23:58.098Z,5.65
2022-08-24T23:26:26.484Z,4.78
2022-08-24T23:28:54.840Z,6.65
2022-08-24T23:31:24.431Z,5.55
2022-08-24T23:33:53.699Z,6.70
2022-08-24T23:36:23.673Z,5.85
2022-08-24T23:38:54.084Z,5.55
2022-08-24T23:41:26.791Z,6.72
2022-08-24T23:43:55.698Z,5.63
2022-08-24T23:46:25.278Z,6.72
2022-08-24T23:48:55.828Z,5.53
2022-08-24T23:51:25.656Z,6.68
2022-08-24T23:53:54.011Z,7.50
2022-08-24T23:56:26.214Z,6.80
2022-08-24T23:58:54.501Z,5.50
